Time;durP1;ratioP1;P1;durP2;ratioP2;P2;SDS_P1;SDS_P2;PMS_P1;PMS_P2;Temp;Humidity;BMP_temperature;BMP_pressure;BME280_temperature;BME280_humidity;BME280_pressure;Samples;Min_cycle;Max_cycle;Signal;HPM_P1;HPM_P2
2022/12/28 00:00:22;;;;;;;7.38;3.42;;;6.80;81.70;;;;;;5089893;28;20059;-70
2022/12/28 00:02:47;;;;;;;10.45;4.13;;;6.80;81.80;;;;;;5089031;28;20036;-70
2022/12/28 00:05:13;;;;;;;6.15;3.53;;;6.80;81.90;;;;;;5091188;28;20074;-70
2022/12/28 00:07:39;;;;;;;7.55;3.83;;;6.80;82.00;;;;;;5094003;28;20056;-70
2022/12/28 00:10:05;;;;;;;9.35;4.18;;;6.80;82.10;;;;;;5077467;28;20098;-70
2022/12/28 00:12:31;;;;;;;9.25;3.78;;;6.80;82.10;;;;;;5072240;28;20043;-70
2022/12/28 00:14:58;;;;;;;11.82;5.18;;;6.80;82.20;;;;;;5090201;28;20048;-70
2022/12/28 00:17:23;;;;;;;6.85;4.20;;;6.80;82.20;;;;;;5093416;28;20036;-70
2022/12/28 00:19:49;;;;;;;7.07;4.00;;;6.80;82.30;;;;;;5093578;28;20050;-67
2022/12/28 00:22:15;;;;;;;8.10;4.03;;;6.80;82.30;;;;;;5077200;28;20100;-68
2022/12/28 00:24:41;;;;;;;9.35;4.57;;;6.80;82.40;;;;;;5063291;28;20053;-67
2022/12/28 00:27:06;;;;;;;5.82;3.40;;;6.80;82.50;;;;;;5073346;28;20041;-66
2022/12/28 00:29:32;;;;;;;9.32;4.75;;;6.80;82.50;;;;;;5073846;28;20051;-66
2022/12/28 00:31:58;;;;;;;10.00;4.57;;;6.80;82.60;;;;;;5073250;28;20047;-66
2022/12/28 00:34:23;;;;;;;7.93;4.53;;;6.80;82.60;;;;;;5082834;28;20036;-66
2022/12/28 00:36:50;;;;;;;8.25;4.43;;;6.80;82.70;;;;;;5073219;28;20037;-66
2022/12/28 00:39:16;;;;;;;9.63;4.40;;;6.80;82.70;;;;;;5074905;28;20057;-66
2022/12/28 00:41:42;;;;;;;9.60;4.50;;;6.80;82.80;;;;;;5073138;28;20076;-66
2022/12/28 00:44:08;;;;;;;8.95;4.00;;;6.80;82.80;;;;;;5056494;28;20059;-66
2022/12/28 00:46:33;;;;;;;10.82;4.43;;;6.80;82.80;;;;;;5073515;28;20046;-66
2022/12/28 00:48:59;;;;;;;6.85;3.97;;;6.80;82.80;;;;;;5077750;28;20054;-66
2022/12/28 00:51:25;;;;;;;9.90;4.28;;;6.80;82.80;;;;;;5075971;28;20039;-66
2022/12/28 00:53:50;;;;;;;7.85;4.00;;;6.80;82.70;;;;;;5076379;28;20068;-66
2022/12/28 00:56:18;;;;;;;8.95;4.32;;;6.80;82.80;;;;;;5092824;28;20032;-66
2022/12/28 00:58:45;;;;;;;6.40;3.50;;;6.80;82.80;;;;;;5087545;28;20044;-66
2022/12/28 01:01:13;;;;;;;6.50;3.67;;;6.80;82.80;;;;;;5090846;28;20119;-66
2022/12/28 01:03:39;;;;;;;8.82;3.88;;;6.80;82.80;;;;;;5093270;28;20044;-66
2022/12/28 01:06:06;;;;;;;8.05;4.07;;;6.80;82.80;;;;;;5059984;28;20638;-66
2022/12/28 01:08:32;;;;;;;9.25;3.42;;;6.80;82.80;;;;;;5075253;28;20040;-66
2022/12/28 01:10:58;;;;;;;6.78;3.72;;;6.80;82.80;;;;;;5076319;28;20043;-66
2022/12/28 01:13:23;;;;;;;6.85;4.32;;;6.80;82.70;;;;;;5086175;28;20051;-66
2022/12/28 01:15:49;;;;;;;7.18;3.80;;;6.90;82.80;;;;;;5078909;28;20044;-66
2022/12/28 01:18:15;;;;;;;8.25;4.20;;;6.80;82.70;;;;;;5073588;28;20045;-66
2022/12/28 01:20:40;;;;;;;9.27;3.72;;;6.90;82.70;;;;;;5075662;28;20045;-66
2022/12/28 01:23:06;;;;;;;9.70;4.32;;;6.90;82.70;;;;;;5056089;28;20048;-66
2022/12/28 01:25:32;;;;;;;7.00;4.38;;;6.90;82.70;;;;;;5072563;28;20044;-66
2022/12/28 01:27:58;;;;;;;10.80;4.80;;;6.90;82.80;;;;;;5072252;28;20047;-66
2022/12/28 01:30:24;;;;;;;8.82;4.60;;;6.90;82.80;;;;;;5058810;28;20041;-66
2022/12/28 01:32:49;;;;;;;7.97;4.32;;;6.90;82.80;;;;;;5072523;28;20554;-66
2022/12/28 01:35:15;;;;;;;9.40;4.38;;;6.90;82.90;;;;;;5038846;28;20040;-66
2022/12/28 01:37:41;;;;;;;9.40;4.47;;;6.90;82.90;;;;;;5071058;28;20040;-66
2022/12/28 01:40:08;;;;;;;11.80;4.35;;;6.90;82.90;;;;;;5084245;28;20048;-66
2022/12/28 01:42:37;;;;;;;8.25;3.85;;;6.90;83.00;;;;;;5085136;28;20040;-66
2022/12/28 01:45:21;;;;;;;10.10;4.78;;;6.90;83.00;;;;;;5073436;28;20036;-66
2022/12/28 01:47:50;;;;;;;11.43;4.25;;;6.90;83.00;;;;;;5091984;28;20097;-66
2022/12/28 01:50:21;;;;;;;12.23;4.32;;;7.00;83.00;;;;;;5062664;28;20036;-66
2022/12/28 01:52:55;;;;;;;9.15;4.47;;;7.00;83.00;;;;;;5061714;28;20093;-66
2022/12/28 01:55:23;;;;;;;6.70;3.97;;;7.00;83.00;;;;;;5072046;28;20051;-66
2022/12/28 01:58:04;;;;;;;8.57;4.00;;;7.00;83.00;;;;;;5071768;28;20033;-66
2022/12/28 02:00:30;;;;;;;10.43;3.75;;;7.00;83.00;;;;;;5086237;28;20104;-66
2022/12/28 02:03:25;;;;;;;8.43;3.70;;;7.00;83.00;;;;;;5089552;28;21150;-66
2022/12/28 02:05:55;;;;;;;8.60;4.10;;;7.00;83.00;;;;;;5071260;28;20101;-67
2022/12/28 02:08:51;;;;;;;7.28;3.85;;;7.00;83.00;;;;;;5071818;28;20075;-66
2022/12/28 02:11:18;;;;;;;7.32;3.92;;;7.00;83.00;;;;;;5071622;28;20489;-66
2022/12/28 02:13:47;;;;;;;8.23;3.88;;;7.00;83.00;;;;;;5076370;28;20366;-66
2022/12/28 02:16:13;;;;;;;6.25;4.10;;;7.00;83.10;;;;;;5091030;28;20067;-66
2022/12/28 02:18:40;;;;;;;8.13;4.35;;;7.10;83.20;;;;;;5081880;28;20082;-66
2022/12/28 02:21:09;;;;;;;11.75;5.05;;;7.10;83.20;;;;;;5089730;28;20039;-66
2022/12/28 02:23:53;;;;;;;9.95;4.82;;;7.10;83.30;;;;;;5072561;28;20044;-66
2022/12/28 02:27:10;;;;;;;11.48;4.88;;;7.10;83.40;;;;;;5055717;28;20131;-66
2022/12/28 02:29:41;;;;;;;10.80;4.60;;;7.10;83.40;;;;;;5087381;28;20056;-66
2022/12/28 02:32:16;;;;;;;9.18;4.55;;;7.10;83.50;;;;;;5091024;28;20126;-66
2022/12/28 02:34:45;;;;;;;10.35;4.85;;;7.10;83.70;;;;;;5069379;28;20111;-66
2022/12/28 02:37:48;;;;;;;7.93;4.63;;;7.20;83.80;;;;;;5054727;28;20047;-66
2022/12/28 02:40:33;;;;;;;8.00;4.32;;;7.20;83.90;;;;;;5056280;28;20061;-66
2022/12/28 02:43:01;;;;;;;7.95;5.13;;;7.10;84.00;;;;;;5070941;28;20041;-66
2022/12/28 02:51:30;;;;;;;8.23;4.50;;;7.20;84.10;;;;;;5074315;28;20098;-66
2022/12/28 02:57:27;;;;;;;7.35;4.65;;;7.20;84.20;;;;;;5075110;28;20520;-66
2022/12/28 03:00:07;;;;;;;10.82;5.25;;;7.20;84.60;;;;;;5084884;28;20162;-66
2022/12/28 03:02:42;;;;;;;9.98;4.70;;;7.30;84.40;;;;;;5094120;28;20040;-67
2022/12/28 03:05:12;;;;;;;7.50;4.50;;;7.20;84.30;;;;;;5086638;28;20461;-67
2022/12/28 03:10:51;;;;;;;6.95;4.63;;;7.30;84.50;;;;;;5094225;28;20393;-66
2022/12/28 03:13:43;;;;;;;9.25;5.00;;;7.30;84.60;;;;;;5091328;28;20033;-66
2022/12/28 03:16:20;;;;;;;8.80;5.50;;;7.30;84.60;;;;;;5104380;28;20143;-66
2022/12/28 03:33:06;;;;;;;9.57;4.78;;;7.30;85.00;;;;;;5092705;28;20131;-66
2022/12/28 03:35:56;;;;;;;8.90;5.22;;;7.30;85.00;;;;;;5077069;28;20051;-66
2022/12/28 03:38:34;;;;;;;8.43;5.30;;;7.30;85.10;;;;;;5093514;28;20055;-66
2022/12/28 03:41:07;;;;;;;6.63;5.20;;;7.30;85.60;;;;;;5081249;28;20048;-66
2022/12/28 03:43:52;;;;;;;6.70;4.80;;;7.30;85.20;;;;;;5074311;28;20075;-66
2022/12/28 03:46:35;;;;;;;8.10;5.18;;;7.40;85.30;;;;;;5093676;28;20105;-66
2022/12/28 03:49:01;;;;;;;7.45;5.20;;;7.30;85.30;;;;;;5089215;28;20044;-66
2022/12/28 03:51:29;;;;;;;9.32;5.70;;;7.40;85.40;;;;;;5075630;28;20496;-66
2022/12/28 03:53:55;;;;;;;8.10;5.93;;;7.40;85.40;;;;;;5087107;28;20082;-66
2022/12/28 03:56:24;;;;;;;7.35;4.55;;;7.40;85.50;;;;;;5092229;28;20507;-66
2022/12/28 03:58:50;;;;;;;7.78;5.38;;;7.40;85.50;;;;;;5076808;28;20052;-66
2022/12/28 04:01:16;;;;;;;9.18;5.43;;;7.40;85.60;;;;;;5093765;28;20035;-66
2022/12/28 04:03:41;;;;;;;6.20;4.82;;;7.40;85.60;;;;;;5087284;28;20504;-66
2022/12/28 04:06:11;;;;;;;9.88;6.03;;;7.40;85.70;;;;;;5075383;28;20048;-66
2022/12/28 04:08:37;;;;;;;6.57;5.25;;;7.40;85.80;;;;;;5074534;28;20527;-66
2022/12/28 04:11:03;;;;;;;7.15;5.13;;;7.40;85.80;;;;;;5094351;28;20044;-66
2022/12/28 04:13:30;;;;;;;9.65;5.15;;;7.40;85.90;;;;;;5094001;28;20116;-66
2022/12/28 04:15:58;;;;;;;6.22;4.88;;;7.40;85.90;;;;;;5094941;28;20515;-66
2022/12/28 04:18:23;;;;;;;6.70;4.50;;;7.40;85.90;;;;;;5074304;28;20040;-66
2022/12/28 04:20:49;;;;;;;7.88;4.90;;;7.50;86.00;;;;;;5073936;28;20501;-66
2022/12/28 04:23:15;;;;;;;7.28;5.18;;;7.50;86.10;;;;;;5081992;28;20457;-66
2022/12/28 04:25:40;;;;;;;7.93;5.80;;;7.50;86.10;;;;;;5073608;28;20048;-67
2022/12/28 04:28:06;;;;;;;6.32;4.85;;;7.50;86.10;;;;;;5071995;28;20051;-69
2022/12/28 04:30:32;;;;;;;6.40;5.40;;;7.50;86.20;;;;;;5060046;28;20033;-69
2022/12/28 04:32:57;;;;;;;6.47;5.15;;;7.50;86.20;;;;;;5078655;28;20122;-68
2022/12/28 04:35:23;;;;;;;8.63;5.80;;;7.50;86.20;;;;;;5093321;28;20032;-68
2022/12/28 04:37:49;;;;;;;8.48;5.40;;;7.50;86.30;;;;;;5092926;28;20101;-68
2022/12/28 04:40:14;;;;;;;8.23;5.80;;;7.50;86.30;;;;;;5079437;28;20123;-68
2022/12/28 04:42:40;;;;;;;8.20;5.68;;;7.50;86.40;;;;;;5073354;28;20410;-68
2022/12/28 04:45:06;;;;;;;7.35;6.28;;;7.60;86.50;;;;;;5073455;28;20040;-68
2022/12/28 04:47:32;;;;;;;7.28;6.47;;;7.60;86.50;;;;;;5073451;28;20497;-68
2022/12/28 04:49:58;;;;;;;6.88;5.75;;;7.60;86.60;;;;;;5082355;28;20080;-68
2022/12/28 04:52:23;;;;;;;7.47;6.05;;;7.60;86.60;;;;;;5075226;28;20393;-68
2022/12/28 04:54:49;;;;;;;7.93;5.53;;;7.60;86.70;;;;;;5073005;28;20527;-68
2022/12/28 04:57:15;;;;;;;8.45;6.07;;;7.60;86.70;;;;;;5057309;28;20036;-68
2022/12/28 04:59:40;;;;;;;10.93;7.07;;;7.60;86.70;;;;;;5075969;28;20040;-66
2022/12/28 05:02:06;;;;;;;6.88;6.15;;;7.60;86.80;;;;;;5072766;28;20055;-66
2022/12/28 05:04:32;;;;;;;9.50;6.57;;;7.70;86.80;;;;;;5081261;28;20085;-66
2022/12/28 05:06:57;;;;;;;9.23;7.97;;;7.70;86.90;;;;;;5091264;28;20052;-65
2022/12/28 05:09:23;;;;;;;9.05;7.15;;;7.70;86.90;;;;;;5072387;28;20028;-66
2022/12/28 05:11:49;;;;;;;8.35;7.22;;;7.70;86.90;;;;;;5086490;28;20040;-65
2022/12/28 05:14:15;;;;;;;8.88;6.93;;;7.70;87.00;;;;;;5066374;28;20039;-66
2022/12/28 05:16:41;;;;;;;8.90;7.38;;;7.70;87.00;;;;;;5089060;28;20446;-66
2022/12/28 05:19:07;;;;;;;9.18;7.70;;;7.80;87.10;;;;;;5055812;28;20048;-66
2022/12/28 05:21:33;;;;;;;8.73;7.43;;;7.80;87.10;;;;;;5082645;28;20127;-66
2022/12/28 05:23:58;;;;;;;9.60;7.35;;;7.80;87.20;;;;;;5086826;28;20040;-66
2022/12/28 05:26:27;;;;;;;7.55;6.82;;;7.80;87.20;;;;;;5072521;28;20044;-66
2022/12/28 05:28:57;;;;;;;9.35;8.20;;;7.80;87.20;;;;;;5073299;28;20036;-67
2022/12/28 05:31:23;;;;;;;9.02;7.70;;;7.80;87.20;;;;;;5073043;28;20037;-68
2022/12/28 05:33:49;;;;;;;10.73;8.20;;;7.90;87.20;;;;;;5091816;28;20488;-68
2022/12/28 05:36:21;;;;;;;11.07;8.50;;;7.90;87.30;;;;;;5077027;28;20425;-68
2022/12/28 05:38:47;;;;;;;9.88;7.90;;;7.90;87.40;;;;;;5092319;28;20048;-69
2022/12/28 05:41:21;;;;;;;8.82;7.43;;;7.90;87.30;;;;;;5092183;28;20055;-68
2022/12/28 05:43:48;;;;;;;10.20;8.38;;;7.90;87.40;;;;;;5072452;28;20067;-66
2022/12/28 05:46:18;;;;;;;11.57;8.90;;;7.90;87.40;;;;;;5089014;28;20052;-66
2022/12/28 05:48:44;;;;;;;8.65;7.72;;;8.00;87.50;;;;;;5092413;28;20542;-66
2022/12/28 05:51:13;;;;;;;9.27;7.70;;;8.00;87.50;;;;;;5075616;28;20427;-66
2022/12/28 05:53:39;;;;;;;8.73;7.78;;;8.00;87.60;;;;;;5073293;28;20045;-66
2022/12/28 05:56:07;;;;;;;10.35;7.90;;;8.00;87.60;;;;;;5071582;28;20093;-66
2022/12/28 05:58:33;;;;;;;9.57;8.50;;;8.00;87.60;;;;;;5072068;28;20105;-66
2022/12/28 06:01:09;;;;;;;9.73;7.45;;;8.00;87.60;;;;;;5079085;28;20047;-66
2022/12/28 06:03:36;;;;;;;9.05;7.80;;;8.10;87.70;;;;;;5065454;28;20078;-68
2022/12/28 06:06:08;;;;;;;9.30;8.25;;;8.10;87.70;;;;;;5071922;28;20389;-68
2022/12/28 06:08:35;;;;;;;10.05;8.23;;;8.10;87.70;;;;;;5071567;28;20051;-69
2022/12/28 06:11:04;;;;;;;9.48;7.38;;;8.10;87.60;;;;;;5072038;28;20044;-69
2022/12/28 06:13:30;;;;;;;11.05;8.25;;;8.10;87.70;;;;;;5073359;28;20496;-69
2022/12/28 06:15:56;;;;;;;9.25;8.35;;;8.10;87.70;;;;;;5090500;28;20135;-69
2022/12/28 06:18:22;;;;;;;9.50;7.80;;;8.10;87.70;;;;;;5075017;28;20528;-69
2022/12/28 06:20:48;;;;;;;12.00;8.50;;;8.20;87.80;;;;;;5090501;28;20040;-69
2022/12/28 06:23:14;;;;;;;10.80;7.82;;;8.20;87.80;;;;;;5088551;28;20058;-69
2022/12/28 06:25:39;;;;;;;9.13;8.23;;;8.20;87.90;;;;;;5074900;28;20072;-69
2022/12/28 06:28:05;;;;;;;10.30;7.72;;;8.20;87.80;;;;;;5088744;28;20097;-69
2022/12/28 06:30:31;;;;;;;10.38;8.18;;;8.20;87.90;;;;;;5057665;28;20047;-69
2022/12/28 06:32:56;;;;;;;9.07;8.10;;;8.20;87.90;;;;;;5087767;28;20040;-69
2022/12/28 06:35:23;;;;;;;8.45;7.30;;;8.20;87.90;;;;;;5074808;28;20032;-69
2022/12/28 06:37:48;;;;;;;8.70;7.43;;;8.20;88.00;;;;;;5074694;28;20032;-69
2022/12/28 06:40:15;;;;;;;8.40;7.38;;;8.30;88.10;;;;;;5082968;28;20067;-69
2022/12/28 06:42:40;;;;;;;9.75;8.15;;;8.30;88.10;;;;;;5081658;28;20484;-68
2022/12/28 06:45:07;;;;;;;9.07;7.22;;;8.30;88.10;;;;;;5089667;28;20093;-69
2022/12/28 06:47:36;;;;;;;8.48;7.43;;;8.30;88.20;;;;;;5090927;28;20077;-69
2022/12/28 06:50:02;;;;;;;8.32;7.50;;;8.30;88.10;;;;;;5081349;28;20085;-68
2022/12/28 06:52:28;;;;;;;8.85;7.40;;;8.30;88.10;;;;;;5083198;28;20048;-68
2022/12/28 06:54:54;;;;;;;7.82;7.00;;;8.30;88.10;;;;;;5054525;28;20045;-68
2022/12/28 06:57:19;;;;;;;8.82;7.55;;;8.40;88.20;;;;;;5071838;28;20112;-68
2022/12/28 06:59:45;;;;;;;8.65;7.47;;;8.30;88.20;;;;;;5085289;28;20508;-68
2022/12/28 07:02:11;;;;;;;8.55;7.10;;;8.40;88.30;;;;;;5080057;28;20051;-69
2022/12/28 07:04:37;;;;;;;10.60;8.00;;;8.40;88.20;;;;;;5090475;28;20036;-66
2022/12/28 07:07:02;;;;;;;10.57;7.60;;;8.40;88.20;;;;;;5091488;28;20047;-66
2022/12/28 07:09:28;;;;;;;8.30;7.43;;;8.40;88.20;;;;;;5074140;28;20477;-66
2022/12/28 07:11:54;;;;;;;8.68;6.95;;;8.40;88.30;;;;;;5088433;28;20481;-66
2022/12/28 07:14:19;;;;;;;8.10;7.30;;;8.40;88.20;;;;;;5088945;28;20040;-66
2022/12/28 07:16:46;;;;;;;9.98;7.10;;;8.40;88.20;;;;;;5070588;28;20052;-66
2022/12/28 07:19:12;;;;;;;7.55;6.47;;;8.50;88.80;;;;;;5054305;28;20052;-66
2022/12/28 07:21:38;;;;;;;10.63;7.57;;;8.40;88.30;;;;;;5055690;28;20192;-66
2022/12/28 07:24:05;;;;;;;11.07;7.93;;;8.50;88.30;;;;;;5068332;28;20123;-66
2022/12/28 07:26:33;;;;;;;8.68;7.28;;;8.50;88.30;;;;;;5091008;28;20121;-67
2022/12/28 07:29:01;;;;;;;10.30;7.55;;;8.50;88.40;;;;;;5092179;28;20036;-66
2022/12/28 07:31:36;;;;;;;9.75;7.53;;;8.50;88.40;;;;;;5088700;28;20028;-66
2022/12/28 07:34:02;;;;;;;9.90;8.18;;;8.50;88.40;;;;;;5086056;28;20039;-66
2022/12/28 07:36:31;;;;;;;9.95;8.18;;;8.50;88.30;;;;;;5087035;28;20045;-66
2022/12/28 07:38:57;;;;;;;10.20;8.38;;;8.50;88.30;;;;;;5074536;28;20040;-66
2022/12/28 07:41:26;;;;;;;10.02;7.68;;;8.60;88.30;;;;;;5082486;28;20139;-66
2022/12/28 07:43:52;;;;;;;8.38;7.47;;;8.60;88.40;;;;;;5094604;28;20491;-66
2022/12/28 07:46:20;;;;;;;11.68;7.82;;;8.60;88.30;;;;;;5094392;28;20055;-66
2022/12/28 07:48:47;;;;;;;11.30;8.05;;;8.60;88.30;;;;;;5094637;28;20414;-65
2022/12/28 07:51:18;;;;;;;9.85;7.65;;;8.60;88.30;;;;;;5085624;28;20040;-65
2022/12/28 07:53:46;;;;;;;9.82;7.97;;;8.60;88.30;;;;;;5089671;28;20526;-69
2022/12/28 07:56:12;;;;;;;12.27;8.90;;;8.60;88.30;;;;;;5093926;28;20043;-68
2022/12/28 07:58:38;;;;;;;12.95;9.02;;;8.60;88.30;;;;;;5056635;28;20040;-69
2022/12/28 08:01:14;;;;;;;8.45;7.32;;;8.60;88.30;;;;;;5090858;28;20040;-68
2022/12/28 08:03:41;;;;;;;9.70;7.80;;;8.60;88.30;;;;;;5085024;28;20046;-68
2022/12/28 08:06:18;;;;;;;9.52;7.40;;;8.70;88.40;;;;;;5074338;28;20036;-68
2022/12/28 08:08:46;;;;;;;10.32;7.40;;;8.70;88.50;;;;;;5078384;28;20506;-69
2022/12/28 08:11:14;;;;;;;11.40;8.13;;;8.70;88.40;;;;;;5092046;28;20031;-68
2022/12/28 08:13:42;;;;;;;9.60;7.85;;;8.70;88.40;;;;;;5074102;28;20048;-68
2022/12/28 08:16:10;;;;;;;12.15;7.82;;;8.70;88.40;;;;;;5075287;28;20043;-68
2022/12/28 08:18:36;;;;;;;8.57;6.68;;;8.70;88.50;;;;;;5089958;28;20066;-68
2022/12/28 08:21:09;;;;;;;9.88;6.60;;;8.70;88.40;;;;;;5093767;28;20126;-68
2022/12/28 08:23:35;;;;;;;10.55;6.63;;;8.70;88.50;;;;;;5074245;28;20040;-69
2022/12/28 08:26:24;;;;;;;8.48;7.03;;;8.80;88.60;;;;;;5073691;28;20504;-68
2022/12/28 08:28:54;;;;;;;9.65;7.45;;;8.80;88.60;;;;;;5073645;28;20051;-69
2022/12/28 08:31:32;;;;;;;9.10;7.18;;;8.80;88.60;;;;;;5091447;28;20051;-68
2022/12/28 08:34:00;;;;;;;9.95;7.60;;;8.80;88.70;;;;;;5092601;28;20050;-69
2022/12/28 08:36:26;;;;;;;7.10;6.15;;;8.80;88.70;;;;;;5079146;28;20044;-70
2022/12/28 08:38:52;;;;;;;7.53;6.68;;;8.80;88.60;;;;;;5073368;28;20485;-66
2022/12/28 08:41:23;;;;;;;9.30;6.72;;;8.80;88.60;;;;;;5085811;28;20179;-66
2022/12/28 08:43:51;;;;;;;9.82;7.10;;;8.90;88.80;;;;;;5093217;28;20131;-66
2022/12/28 08:46:28;;;;;;;8.13;6.68;;;8.90;88.70;;;;;;5085286;28;20032;-66
2022/12/28 08:48:57;;;;;;;10.75;6.43;;;8.90;88.70;;;;;;5091907;28;20039;-66
2022/12/28 08:51:24;;;;;;;10.02;5.68;;;8.90;88.80;;;;;;5093199;28;20044;-66
2022/12/28 08:53:50;;;;;;;7.72;5.80;;;8.90;88.80;;;;;;5090798;28;20035;-66
2022/12/28 08:56:22;;;;;;;8.55;5.72;;;8.90;88.80;;;;;;5091873;28;20047;-66
2022/12/28 08:58:48;;;;;;;6.43;5.43;;;8.90;88.90;;;;;;5092691;28;20127;-66
2022/12/28 09:01:23;;;;;;;6.20;5.53;;;8.90;88.80;;;;;;5088569;28;20075;-66
2022/12/28 09:03:51;;;;;;;10.25;5.97;;;9.00;89.00;;;;;;5084422;28;20090;-66
2022/12/28 09:06:20;;;;;;;6.63;5.50;;;9.00;88.90;;;;;;5086357;28;20551;-66
2022/12/28 09:08:51;;;;;;;5.88;5.28;;;9.00;88.90;;;;;;5070200;28;20055;-66
2022/12/28 09:11:17;;;;;;;6.70;5.43;;;9.00;89.00;;;;;;5085892;28;20035;-65
2022/12/28 09:13:43;;;;;;;7.00;5.60;;;9.00;88.90;;;;;;5086618;28;20032;-66
2022/12/28 09:16:11;;;;;;;7.38;5.35;;;9.00;88.90;;;;;;5069976;28;20538;-66
2022/12/28 09:18:38;;;;;;;8.48;5.90;;;9.00;88.90;;;;;;5078377;28;20577;-71
2022/12/28 09:21:26;;;;;;;6.30;5.30;;;9.00;88.90;;;;;;5080954;28;20036;-69
2022/12/28 09:23:51;;;;;;;5.72;4.75;;;9.10;89.00;;;;;;5077631;28;20031;-70
2022/12/28 09:26:20;;;;;;;7.43;4.88;;;9.10;89.00;;;;;;5086312;28;20036;-70
2022/12/28 09:28:46;;;;;;;6.57;5.43;;;9.10;88.90;;;;;;5082866;28;20040;-70
2022/12/28 09:31:12;;;;;;;6.82;5.15;;;9.10;88.90;;;;;;5075531;28;20052;-70
2022/12/28 09:36:22;;;;;;;9.35;5.63;;;9.10;88.90;;;;;;5079242;28;20047;-70
2022/12/28 09:38:49;;;;;;;8.00;5.97;;;9.10;88.90;;;;;;5072550;28;20040;-69
2022/12/28 09:41:17;;;;;;;6.50;5.38;;;9.10;89.00;;;;;;5079559;28;21173;-69
2022/12/28 09:43:43;;;;;;;7.55;5.57;;;9.10;89.00;;;;;;5076489;28;20032;-70
2022/12/28 09:46:10;;;;;;;6.20;5.18;;;9.20;89.10;;;;;;5083192;28;20481;-69
2022/12/28 09:48:39;;;;;;;6.95;6.10;;;9.20;89.10;;;;;;5066400;28;20036;-70
2022/12/28 09:51:04;;;;;;;6.38;5.47;;;9.20;89.10;;;;;;5084865;28;20035;-70
2022/12/28 09:53:33;;;;;;;6.93;5.47;;;9.20;89.10;;;;;;5078572;28;20543;-69
2022/12/28 09:56:21;;;;;;;6.05;4.63;;;9.30;89.20;;;;;;5069547;28;20105;-70
2022/12/28 09:58:48;;;;;;;5.75;4.75;;;9.20;89.20;;;;;;5084286;28;20422;-70
2022/12/28 10:01:16;;;;;;;7.18;5.13;;;9.20;89.10;;;;;;5081657;28;20093;-70
2022/12/28 10:03:44;;;;;;;6.75;5.20;;;9.30;89.10;;;;;;5087797;28;20647;-70
2022/12/28 10:06:15;;;;;;;7.22;5.05;;;9.30;89.10;;;;;;5088046;28;20434;-70
2022/12/28 10:08:51;;;;;;;6.82;4.93;;;9.30;89.10;;;;;;5075046;28;20369;-70
2022/12/28 10:11:33;;;;;;;6.47;4.40;;;9.30;89.20;;;;;;5086371;28;20037;-70
2022/12/28 10:14:16;;;;;;;6.65;4.70;;;9.30;89.20;;;;;;5055325;28;20432;-70
2022/12/28 10:16:41;;;;;;;6.18;4.38;;;9.30;89.00;;;;;;5071506;28;20036;-70
2022/12/28 10:19:07;;;;;;;5.75;4.80;;;9.30;89.00;;;;;;5046535;28;20089;-70
2022/12/28 10:21:34;;;;;;;5.28;4.70;;;9.30;89.00;;;;;;5058273;28;20135;-70
2022/12/28 10:24:01;;;;;;;6.82;4.30;;;9.40;89.10;;;;;;5076672;28;20425;-70
2022/12/28 10:26:27;;;;;;;5.60;4.25;;;9.40;89.10;;;;;;5085597;28;20048;-70
2022/12/28 10:28:57;;;;;;;6.68;5.03;;;9.40;89.10;;;;;;5068925;28;20361;-70
2022/12/28 10:31:33;;;;;;;7.47;4.63;;;9.40;89.00;;;;;;5079867;28;20364;-70
2022/12/28 10:33:59;;;;;;;5.85;4.70;;;9.40;89.50;;;;;;5082630;28;20044;-70
2022/12/28 10:36:26;;;;;;;5.00;4.20;;;9.40;89.10;;;;;;5087306;28;20437;-70
2022/12/28 10:38:54;;;;;;;5.68;4.15;;;9.40;89.00;;;;;;5079761;28;20185;-70
2022/12/28 10:41:21;;;;;;;6.63;4.60;;;9.40;89.00;;;;;;5084990;28;20073;-70
2022/12/28 10:43:51;;;;;;;5.35;4.38;;;9.40;89.00;;;;;;5065154;28;20198;-72
2022/12/28 10:46:21;;;;;;;6.47;5.50;;;9.50;89.10;;;;;;5085404;28;20519;-71
2022/12/28 10:48:54;;;;;;;6.97;5.65;;;9.50;89.10;;;;;;5082450;28;20082;-71
2022/12/28 10:51:25;;;;;;;5.63;4.97;;;9.50;89.10;;;;;;5082228;28;20476;-71
2022/12/28 10:53:56;;;;;;;6.80;6.10;;;9.50;89.00;;;;;;5083360;28;20058;-70
2022/12/28 10:56:24;;;;;;;6.05;5.50;;;9.50;89.00;;;;;;5082474;28;20036;-70
2022/12/28 10:58:52;;;;;;;6.32;5.50;;;9.50;89.00;;;;;;5084656;28;20063;-70
2022/12/28 11:01:25;;;;;;;7.20;6.20;;;9.50;89.00;;;;;;5081332;28;20048;-71
2022/12/28 11:04:06;;;;;;;8.02;6.57;;;9.50;89.00;;;;;;5084190;28;20058;-70
2022/12/28 11:06:34;;;;;;;6.32;5.68;;;9.50;89.00;;;;;;5076904;28;20105;-70
2022/12/28 11:09:03;;;;;;;6.38;5.75;;;9.50;89.30;;;;;;5078853;28;20037;-71
2022/12/28 11:11:29;;;;;;;6.78;5.68;;;9.60;89.00;;;;;;5081448;28;20039;-72
2022/12/28 11:14:01;;;;;;;7.05;5.45;;;9.60;88.90;;;;;;5087571;28;20122;-71
2022/12/28 11:16:30;;;;;;;7.75;6.25;;;9.50;88.90;;;;;;5084371;28;20442;-70
2022/12/28 11:18:57;;;;;;;5.80;5.20;;;9.60;88.90;;;;;;5064278;28;20067;-71
2022/12/28 11:21:22;;;;;;;6.20;5.60;;;9.60;88.90;;;;;;5090598;28;20040;-71
2022/12/28 11:23:50;;;;;;;6.22;5.00;;;9.60;88.90;;;;;;5078463;28;20502;-71
2022/12/28 11:26:17;;;;;;;6.38;4.70;;;9.60;88.80;;;;;;5073542;28;20040;-71
2022/12/28 11:28:47;;;;;;;5.30;4.68;;;9.60;88.80;;;;;;5083697;28;20089;-71
2022/12/28 11:31:36;;;;;;;4.97;4.47;;;9.60;88.80;;;;;;5078896;28;20474;-71
2022/12/28 11:34:05;;;;;;;5.25;4.13;;;9.60;88.80;;;;;;5075958;28;20098;-71
2022/12/28 11:36:37;;;;;;;5.78;4.38;;;9.60;88.80;;;;;;5075158;28;20083;-71
2022/12/28 11:39:25;;;;;;;5.22;4.10;;;9.60;88.80;;;;;;5075283;28;20032;-71
2022/12/28 11:42:00;;;;;;;5.68;3.80;;;9.60;88.80;;;;;;5074698;28;20068;-71
2022/12/28 11:44:29;;;;;;;6.40;3.92;;;9.60;88.80;;;;;;5077055;28;20123;-71
2022/12/28 11:47:20;;;;;;;5.00;4.13;;;9.60;88.70;;;;;;5074552;28;20076;-71
2022/12/28 11:49:47;;;;;;;4.93;3.65;;;9.60;88.80;;;;;;5076385;28;20127;-71
2022/12/28 11:52:15;;;;;;;5.22;3.92;;;9.60;88.80;;;;;;5094522;28;20036;-71
2022/12/28 11:54:54;;;;;;;4.32;3.70;;;9.60;88.80;;;;;;5087174;28;20583;-70
2022/12/28 11:57:38;;;;;;;4.55;3.72;;;9.60;88.80;;;;;;5079587;28;20384;-70
2022/12/28 12:00:18;;;;;;;4.50;4.10;;;9.60;88.80;;;;;;5090974;28;20036;-70
2022/12/28 12:02:52;;;;;;;5.55;4.55;;;9.60;88.80;;;;;;5087082;28;20048;-69
2022/12/28 12:05:37;;;;;;;5.03;4.53;;;9.60;88.80;;;;;;5083588;28;20122;-70
2022/12/28 12:08:23;;;;;;;4.88;4.30;;;9.60;88.80;;;;;;5089121;28;20039;-69
2022/12/28 12:11:09;;;;;;;5.38;4.50;;;9.70;88.80;;;;;;5096143;28;20051;-69
2022/12/28 12:13:46;;;;;;;5.80;5.18;;;9.60;88.70;;;;;;5085542;28;20044;-69
2022/12/28 12:16:43;;;;;;;5.93;5.25;;;9.70;88.80;;;;;;5080186;28;20479;-70
2022/12/28 12:19:23;;;;;;;5.68;5.00;;;9.60;88.80;;;;;;5084790;28;20127;-70
2022/12/28 12:22:00;;;;;;;8.32;6.03;;;9.70;88.80;;;;;;5079944;28;20561;-70
2022/12/28 12:24:31;;;;;;;7.47;5.55;;;9.70;89.00;;;;;;5085248;28;20048;-70
2022/12/28 12:27:02;;;;;;;7.15;4.80;;;9.70;88.80;;;;;;5078649;28;20483;-70
2022/12/28 12:29:35;;;;;;;6.63;4.53;;;9.70;88.80;;;;;;5063932;28;20037;-70
2022/12/28 12:32:05;;;;;;;6.22;4.82;;;9.70;88.80;;;;;;5083602;28;20032;-70
2022/12/28 12:34:52;;;;;;;5.30;4.80;;;9.70;88.70;;;;;;5084712;28;20039;-70
2022/12/28 12:37:50;;;;;;;4.88;3.92;;;9.70;88.70;;;;;;5076766;28;20123;-71
2022/12/28 12:40:24;;;;;;;4.47;4.07;;;9.70;88.70;;;;;;5097284;28;20061;-71
2022/12/28 12:42:53;;;;;;;6.47;4.38;;;9.70;88.60;;;;;;5084051;28;20123;-70
2022/12/28 12:45:38;;;;;;;4.72;3.90;;;9.70;88.60;;;;;;5075748;28;20094;-70
2022/12/28 12:48:31;;;;;;;4.60;3.58;;;9.70;88.60;;;;;;5079462;28;20077;-71
2022/12/28 12:51:05;;;;;;;4.03;3.40;;;9.70;88.60;;;;;;5080773;28;20089;-70
2022/12/28 12:53:50;;;;;;;4.85;3.58;;;9.70;88.60;;;;;;5080858;28;20040;-70
2022/12/28 12:56:45;;;;;;;5.90;3.53;;;9.70;88.60;;;;;;5059338;28;20044;-70
2022/12/28 12:59:14;;;;;;;;;;;9.70;88.50;;;;;;5081667;28;20545;-70
2022/12/28 13:02:15;;;;;;;3.40;3.10;;;9.60;88.20;;;;;;5078974;28;19924;-70
2022/12/28 13:04:42;;;;;;;5.63;3.58;;;9.60;88.60;;;;;;5080791;28;20040;-71
2022/12/28 13:07:22;;;;;;;4.07;3.30;;;9.70;88.50;;;;;;5078878;28;20396;-70
2022/12/28 13:09:50;;;;;;;4.90;3.47;;;9.60;88.50;;;;;;5080968;28;20048;-70
2022/12/28 13:12:17;;;;;;;4.40;3.17;;;9.60;88.40;;;;;;5077237;28;20044;-70
2022/12/28 13:14:45;;;;;;;5.57;3.38;;;9.60;88.30;;;;;;5085234;28;20075;-70
2022/12/28 13:17:19;;;;;;;3.45;2.92;;;9.60;88.30;;;;;;5079663;28;20032;-70
2022/12/28 13:19:45;;;;;;;4.63;2.93;;;9.60;88.30;;;;;;5069572;28;20044;-70
2022/12/28 13:22:31;;;;;;;3.65;2.88;;;9.70;88.20;;;;;;5078532;28;20052;-70
2022/12/28 13:24:57;;;;;;;4.80;2.72;;;9.70;88.30;;;;;;5081617;28;20485;-70
2022/12/28 13:27:34;;;;;;;2.90;2.60;;;9.60;88.10;;;;;;5083028;28;20129;-70
2022/12/28 13:30:01;;;;;;;4.68;2.42;;;9.60;88.10;;;;;;5074837;28;20051;-70
2022/12/28 13:32:34;;;;;;;3.80;2.90;;;9.70;88.10;;;;;;5058182;28;20055;-70
2022/12/28 13:35:00;;;;;;;3.35;2.22;;;9.70;88.10;;;;;;5078034;28;20827;-70
2022/12/28 13:37:26;;;;;;;4.82;2.80;;;9.60;87.90;;;;;;5077564;28;20177;-70
2022/12/28 13:40:14;;;;;;;2.90;2.20;;;9.70;87.90;;;;;;5085503;28;20061;-70